Time;durP1;ratioP1;P1;durP2;ratioP2;P2;SDS_P1;SDS_P2;PMS_P1;PMS_P2;Temp;Humidity;BMP_temperature;BMP_pressure;BME280_temperature;BME280_humidity;BME280_pressure;Samples;Min_cycle;Max_cycle;Signal;HPM_P1;HPM_P2
2023/05/30 00:01:39;;;;;;;0.55;0.50;;;23.80;48.00;;;;;;6388657;28;20094;-39
2023/05/30 00:04:44;;;;;;;1.13;0.52;;;23.70;47.90;;;;;;6368766;28;20035;-46
2023/05/30 00:07:46;;;;;;;1.05;0.50;;;23.70;48.00;;;;;;6384454;28;20637;-40
2023/05/30 00:10:47;;;;;;;0.63;0.50;;;23.70;47.90;;;;;;6382773;28;20035;-39
2023/05/30 00:13:49;;;;;;;0.77;0.50;;;23.60;47.90;;;;;;6387817;28;20035;-39
2023/05/30 00:16:51;;;;;;;0.45;0.40;;;23.60;47.80;;;;;;6389304;28;20039;-38
2023/05/30 00:19:54;;;;;;;0.85;0.60;;;23.70;47.90;;;;;;6391519;28;20046;-39
2023/05/30 00:22:58;;;;;;;0.82;0.43;;;23.60;47.90;;;;;;6393013;28;20123;-38
2023/05/30 00:26:01;;;;;;;0.60;0.30;;;23.60;47.80;;;;;;6375970;28;20046;-38
2023/05/30 00:29:03;;;;;;;0.60;0.50;;;23.50;47.80;;;;;;6391877;28;20051;-38
2023/05/30 00:32:05;;;;;;;0.98;0.50;;;23.60;47.90;;;;;;6393961;28;20031;-39
2023/05/30 00:35:08;;;;;;;0.60;0.40;;;23.40;47.70;;;;;;6392897;28;20478;-37
2023/05/30 00:38:09;;;;;;;1.42;0.50;;;23.50;48.40;;;;;;6385649;28;20482;-39
2023/05/30 00:41:11;;;;;;;1.25;0.40;;;23.50;47.70;;;;;;6384909;28;20036;-39
2023/05/30 00:44:13;;;;;;;0.63;0.40;;;23.70;47.90;;;;;;6386432;28;20089;-40
2023/05/30 00:47:16;;;;;;;0.60;0.40;;;23.60;47.80;;;;;;6375338;28;20036;-41
2023/05/30 00:50:19;;;;;;;0.80;0.70;;;23.50;47.80;;;;;;6367793;28;20130;-42
2023/05/30 00:53:23;;;;;;;0.47;0.40;;;23.40;47.70;;;;;;6367170;28;20122;-43
2023/05/30 00:56:28;;;;;;;0.80;0.45;;;23.50;47.80;;;;;;6367160;27;20055;-41
2023/05/30 00:59:30;;;;;;;0.80;0.50;;;23.50;47.80;;;;;;6366178;28;20051;-41
2023/05/30 01:02:33;;;;;;;0.95;0.55;;;23.20;47.80;;;;;;6363315;28;20046;-41
2023/05/30 01:05:35;;;;;;;1.08;0.50;;;23.30;47.70;;;;;;6347972;28;20046;-43
2023/05/30 01:08:39;;;;;;;1.33;0.70;;;23.50;47.90;;;;;;6367263;28;20046;-41
2023/05/30 01:11:52;;;;;;;1.05;0.50;;;23.40;47.80;;;;;;6367620;28;20110;-40
2023/05/30 01:15:02;;;;;;;0.50;0.30;;;23.00;47.60;;;;;;6368153;28;20035;-41
2023/05/30 01:18:15;;;;;;;0.40;0.30;;;23.40;47.80;;;;;;6350912;28;20027;-40
2023/05/30 01:21:19;;;;;;;0.90;0.52;;;23.30;47.80;;;;;;6367874;28;20425;-40
2023/05/30 01:24:34;;;;;;;0.30;0.30;;;23.50;47.90;;;;;;6368161;28;20046;-40
2023/05/30 01:27:44;;;;;;;0.80;0.50;;;23.50;47.90;;;;;;6368093;28;20046;-40
2023/05/30 01:30:51;;;;;;;1.00;0.50;;;23.30;47.80;;;;;;6350487;28;20328;-41
2023/05/30 01:33:54;;;;;;;1.48;0.60;;;23.20;47.70;;;;;;6332965;28;20123;-42
2023/05/30 01:36:56;;;;;;;0.68;0.43;;;23.40;47.90;;;;;;6367193;28;20036;-42
2023/05/30 01:40:00;;;;;;;0.88;0.50;;;23.20;47.90;;;;;;6367625;28;20528;-41
2023/05/30 01:43:14;;;;;;;0.70;0.57;;;23.20;47.80;;;;;;6367781;28;20045;-45
2023/05/30 01:46:26;;;;;;;0.75;0.57;;;23.20;47.90;;;;;;6367515;28;20555;-43
2023/05/30 01:49:34;;;;;;;0.68;0.45;;;23.10;47.70;;;;;;6367211;28;20349;-39
2023/05/30 01:52:41;;;;;;;1.05;0.50;;;23.40;47.90;;;;;;6367403;28;20031;-44
2023/05/30 01:55:44;;;;;;;1.40;0.60;;;23.30;47.90;;;;;;6367446;28;20050;-41
2023/05/30 01:58:49;;;;;;;0.60;0.40;;;23.20;47.80;;;;;;6367154;28;20472;-43
2023/05/30 02:01:55;;;;;;;1.13;0.55;;;23.20;47.80;;;;;;6349599;28;20043;-43
2023/05/30 02:04:57;;;;;;;0.60;0.40;;;23.30;47.80;;;;;;6367086;28;20485;-40
2023/05/30 02:08:01;;;;;;;1.05;0.60;;;23.00;47.80;;;;;;6366871;28;20043;-41
2023/05/30 02:11:03;;;;;;;0.77;0.47;;;23.30;47.50;;;;;;6366906;28;20063;-41
2023/05/30 02:14:05;;;;;;;0.77;0.50;;;23.20;47.90;;;;;;6367011;28;20031;-41
2023/05/30 02:17:07;;;;;;;1.45;0.73;;;23.20;47.90;;;;;;6365930;27;20031;-42
2023/05/30 02:20:09;;;;;;;0.73;0.45;;;22.90;47.70;;;;;;6366704;28;20038;-39
2023/05/30 02:23:13;;;;;;;0.40;0.30;;;23.20;47.80;;;;;;6366388;28;20035;-43
2023/05/30 02:26:14;;;;;;;0.50;0.40;;;23.30;47.90;;;;;;6365324;28;20065;-43
2023/05/30 02:29:16;;;;;;;1.02;0.57;;;23.10;47.80;;;;;;6367131;28;20383;-43
2023/05/30 02:32:22;;;;;;;1.05;0.80;;;23.20;47.90;;;;;;6366264;28;20030;-41
2023/05/30 02:35:23;;;;;;;0.93;0.50;;;23.00;47.80;;;;;;6366012;28;20430;-40
2023/05/30 02:38:25;;;;;;;;;;;23.00;47.80;;;;;;6366848;28;20039;-42
2023/05/30 02:41:26;;;;;;;;;;;23.20;48.10;;;;;;6366770;28;20239;-41
2023/05/30 02:44:28;;;;;;;0.65;0.47;;;22.90;48.00;;;;;;6366187;28;20170;-40
2023/05/30 02:47:30;;;;;;;0.85;0.40;;;23.20;48.10;;;;;;6365780;28;20098;-42
2023/05/30 02:50:32;;;;;;;0.70;0.68;;;23.10;47.80;;;;;;6364604;28;20122;-45
2023/05/30 02:53:34;;;;;;;0.95;0.57;;;23.20;48.00;;;;;;6366492;28;20440;-40
2023/05/30 02:56:39;;;;;;;1.02;0.47;;;23.20;47.40;;;;;;6365744;27;20078;-42
2023/05/30 02:59:47;;;;;;;0.82;0.50;;;23.10;47.10;;;;;;6366181;28;20166;-42
2023/05/30 03:02:50;;;;;;;0.65;0.40;;;22.60;47.60;;;;;;6365996;28;20061;-43
2023/05/30 03:05:52;;;;;;;0.80;0.57;;;23.20;47.80;;;;;;6365958;28;20326;-42
2023/05/30 03:09:07;;;;;;;0.93;0.50;;;23.00;47.70;;;;;;6343366;28;20101;-40
2023/05/30 03:12:11;;;;;;;1.60;0.80;;;23.10;47.90;;;;;;6366150;28;20447;-40
2023/05/30 03:15:13;;;;;;;0.90;0.50;;;23.10;47.30;;;;;;6365138;28;20047;-41
2023/05/30 03:18:18;;;;;;;0.65;0.50;;;23.00;47.80;;;;;;6365038;28;20047;-43
2023/05/30 03:21:21;;;;;;;1.00;0.50;;;23.10;47.80;;;;;;6364519;28;20429;-40
2023/05/30 03:24:23;;;;;;;0.68;0.40;;;23.10;47.80;;;;;;6367435;28;20031;-42
2023/05/30 03:27:27;;;;;;;0.73;0.50;;;23.20;47.80;;;;;;6365002;28;20031;-39
2023/05/30 03:30:29;;;;;;;0.98;0.50;;;23.00;47.70;;;;;;6364430;27;20416;-43
2023/05/30 03:33:35;;;;;;;1.10;0.40;;;23.00;47.70;;;;;;6366582;28;20131;-43
2023/05/30 03:36:38;;;;;;;0.65;0.40;;;22.60;47.50;;;;;;6366413;28;20082;-42
2023/05/30 03:39:40;;;;;;;0.60;0.47;;;23.10;47.70;;;;;;6341341;28;20081;-42
2023/05/30 03:42:41;;;;;;;0.85;0.47;;;23.10;47.80;;;;;;6340165;28;20031;-41
2023/05/30 03:45:46;;;;;;;0.90;0.47;;;23.10;47.80;;;;;;6338957;28;20043;-46
2023/05/30 03:48:48;;;;;;;;;;;23.10;47.70;;;;;;6340433;28;20043;-41
2023/05/30 03:51:55;;;;;;;0.43;0.40;;;22.90;47.90;;;;;;6340141;28;19920;-40
2023/05/30 03:54:58;;;;;;;0.57;0.47;;;23.10;47.30;;;;;;6338431;28;20067;-40
2023/05/30 03:58:00;;;;;;;0.98;0.40;;;23.10;47.80;;;;;;6338888;28;20035;-41
2023/05/30 04:01:01;;;;;;;;;;;23.10;47.60;;;;;;6340493;28;20735;-40
2023/05/30 04:04:04;;;;;;;0.68;0.47;;;22.80;47.80;;;;;;6340143;28;19928;-40
2023/05/30 04:07:06;;;;;;;0.60;0.50;;;22.80;47.40;;;;;;6339152;28;20066;-41
2023/05/30 04:10:08;;;;;;;1.08;0.57;;;22.90;47.50;;;;;;6339167;28;20083;-42
2023/05/30 04:13:10;;;;;;;0.80;0.50;;;22.80;47.40;;;;;;6339805;28;20040;-40
2023/05/30 04:16:13;;;;;;;0.63;0.40;;;22.90;47.50;;;;;;6339187;28;20036;-40
2023/05/30 04:19:16;;;;;;;1.17;0.50;;;22.80;47.40;;;;;;6339135;28;20035;-42
2023/05/30 04:22:21;;;;;;;0.60;0.50;;;22.90;47.50;;;;;;6339601;28;20504;-43
2023/05/30 04:25:23;;;;;;;1.00;0.47;;;22.90;47.30;;;;;;6338830;28;20177;-43
2023/05/30 04:28:24;;;;;;;1.15;0.60;;;23.00;47.50;;;;;;6338461;28;20032;-41
2023/05/30 04:31:26;;;;;;;;;;;22.80;47.20;;;;;;6338945;28;20044;-39
2023/05/30 04:34:29;;;;;;;0.75;0.50;;;22.80;47.40;;;;;;6335802;28;19927;-42
2023/05/30 04:37:33;;;;;;;0.88;0.60;;;22.90;47.30;;;;;;6336630;28;20063;-40
2023/05/30 04:40:35;;;;;;;1.00;0.50;;;22.70;47.20;;;;;;6338378;28;20046;-40
2023/05/30 04:43:37;;;;;;;0.95;0.50;;;22.80;47.90;;;;;;6342796;28;20089;-39
2023/05/30 04:46:40;;;;;;;0.55;0.40;;;22.90;47.30;;;;;;6343154;28;20036;-40
2023/05/30 04:49:42;;;;;;;0.40;0.30;;;22.90;47.10;;;;;;6343270;28;20036;-39
2023/05/30 04:52:44;;;;;;;1.20;0.55;;;22.90;47.10;;;;;;6342214;28;20039;-41
2023/05/30 04:55:45;;;;;;;1.00;0.60;;;22.90;47.20;;;;;;6342621;28;20039;-39
2023/05/30 04:58:51;;;;;;;0.68;0.50;;;22.90;47.10;;;;;;6342158;28;20509;-40
2023/05/30 05:01:53;;;;;;;0.90;0.40;;;22.90;47.00;;;;;;6341137;28;20505;-39
2023/05/30 05:04:56;;;;;;;0.90;0.50;;;23.00;47.20;;;;;;6341264;28;20071;-43
2023/05/30 05:07:57;;;;;;;0.45;0.45;;;22.90;46.90;;;;;;6341524;28;20032;-39
2023/05/30 05:11:00;;;;;;;0.85;0.45;;;22.90;47.10;;;;;;6340624;28;20044;-40
2023/05/30 05:14:01;;;;;;;0.88;0.50;;;22.50;46.70;;;;;;6340820;28;20044;-39
2023/05/30 05:17:03;;;;;;;;;;;22.90;47.10;;;;;;6342788;28;20709;-39
2023/05/30 05:20:08;;;;;;;0.70;0.52;;;22.70;46.90;;;;;;6340596;28;20022;-41
2023/05/30 05:23:16;;;;;;;0.80;0.60;;;22.90;46.90;;;;;;6340610;28;20122;-40
2023/05/30 05:26:18;;;;;;;1.15;0.60;;;22.90;46.80;;;;;;6322062;28;20043;-41
2023/05/30 05:29:19;;;;;;;0.80;0.50;;;22.70;47.00;;;;;;6371350;28;20044;-40
2023/05/30 05:32:21;;;;;;;0.73;0.45;;;22.90;46.90;;;;;;6375305;28;20024;-39
2023/05/30 05:35:23;;;;;;;0.88;0.43;;;22.90;47.00;;;;;;6374370;28;20043;-37
2023/05/30 05:38:25;;;;;;;0.70;0.50;;;22.80;46.70;;;;;;6372563;28;20047;-38
2023/05/30 05:41:26;;;;;;;;;;;22.80;47.00;;;;;;6373882;28;20040;-39
2023/05/30 05:44:30;;;;;;;1.05;0.50;;;22.80;47.10;;;;;;6372847;28;19920;-39
2023/05/30 05:47:32;;;;;;;0.60;0.47;;;22.70;46.90;;;;;;6370684;28;20048;-39
2023/05/30 05:50:34;;;;;;;0.95;0.52;;;22.80;46.80;;;;;;6373325;28;20051;-40
2023/05/30 05:53:35;;;;;;;0.68;0.50;;;22.90;46.90;;;;;;6371202;28;20066;-38
2023/05/30 05:56:37;;;;;;;;;;;23.00;47.00;;;;;;6371240;28;20036;-38
2023/05/30 05:59:38;;;;;;;0.70;0.43;;;23.00;47.30;;;;;;6369385;28;19908;-38
2023/05/30 06:02:40;;;;;;;1.00;0.50;;;22.80;46.80;;;;;;6368522;28;20039;-39
2023/05/30 06:05:42;;;;;;;0.60;0.60;;;22.60;46.80;;;;;;6366674;28;20062;-39
2023/05/30 06:08:46;;;;;;;0.88;0.45;;;22.50;46.60;;;;;;6367725;28;20058;-39
2023/05/30 06:11:47;;;;;;;0.88;0.60;;;22.50;46.60;;;;;;6349672;28;20035;-38
2023/05/30 06:14:48;;;;;;;;;;;22.90;46.70;;;;;;6353088;28;20036;-43
2023/05/30 06:17:50;;;;;;;0.70;0.52;;;22.80;46.90;;;;;;6334624;28;20547;-44
2023/05/30 06:20:52;;;;;;;0.98;0.47;;;22.90;46.70;;;;;;6324399;28;20498;-42
2023/05/30 06:23:54;;;;;;;0.50;0.32;;;22.70;46.60;;;;;;6335161;28;20647;-45
2023/05/30 06:26:55;;;;;;;;;;;22.40;46.60;;;;;;6343226;28;20067;-41
2023/05/30 06:29:56;;;;;;;0.63;0.45;;;22.90;47.00;;;;;;6342067;28;20574;-42
2023/05/30 06:32:58;;;;;;;;;;;22.50;46.70;;;;;;6336147;28;20106;-41
2023/05/30 06:36:00;;;;;;;1.02;0.60;;;23.20;47.10;;;;;;6336659;28;19926;-40
2023/05/30 06:39:02;;;;;;;1.00;0.50;;;22.60;46.70;;;;;;6338595;28;20043;-39
2023/05/30 06:42:07;;;;;;;1.00;0.60;;;22.80;46.60;;;;;;6336718;28;20721;-40
2023/05/30 06:45:17;;;;;;;0.75;0.52;;;23.00;46.70;;;;;;6306294;28;20050;-43
2023/05/30 06:48:22;;;;;;;0.70;0.57;;;22.90;46.60;;;;;;6339869;28;20134;-40
2023/05/30 06:51:24;;;;;;;0.85;0.50;;;22.80;46.70;;;;;;6326052;28;20505;-39
2023/05/30 06:54:29;;;;;;;1.27;0.50;;;23.20;46.60;;;;;;6335251;28;20032;-42
2023/05/30 06:57:30;;;;;;;;;;;23.00;46.40;;;;;;6334180;28;20134;-39
2023/05/30 07:00:32;;;;;;;0.75;0.40;;;22.90;46.70;;;;;;6302322;28;19964;-43
2023/05/30 07:03:33;;;;;;;1.08;0.50;;;22.60;46.30;;;;;;6324583;28;20038;-41
2023/05/30 07:06:36;;;;;;;0.68;0.52;;;22.70;46.20;;;;;;6324091;28;20043;-43
2023/05/30 07:09:37;;;;;;;1.40;0.70;;;23.00;46.30;;;;;;6320524;28;20240;-43
2023/05/30 07:12:41;;;;;;;;;;;22.90;46.30;;;;;;6324817;28;20039;-43
2023/05/30 07:15:42;;;;;;;0.77;0.57;;;22.90;46.60;;;;;;6325406;28;20159;-46
2023/05/30 07:18:44;;;;;;;;;;;23.10;46.40;;;;;;6331432;28;20480;-49
2023/05/30 07:21:46;;;;;;;0.95;0.50;;;22.80;46.20;;;;;;6322608;28;19931;-42
2023/05/30 07:24:48;;;;;;;1.60;0.60;;;23.10;46.20;;;;;;6315442;28;20472;-44
2023/05/30 07:27:51;;;;;;;1.10;0.40;;;22.90;46.80;;;;;;6324995;28;20335;-45
2023/05/30 07:30:53;;;;;;;0.60;0.47;;;23.00;47.50;;;;;;6312016;28;20398;-41
2023/05/30 07:33:54;;;;;;;0.95;0.60;;;23.00;47.50;;;;;;6318991;28;20034;-42
2023/05/30 07:36:57;;;;;;;1.17;0.63;;;22.40;47.20;;;;;;6322665;28;20042;-41
2023/05/30 07:40:05;;;;;;;0.60;0.50;;;23.00;47.10;;;;;;6314964;28;20062;-46
2023/05/30 07:43:06;;;;;;;0.57;0.47;;;23.00;47.30;;;;;;6322320;28;20062;-43
2023/05/30 07:46:08;;;;;;;0.47;0.25;;;23.10;47.70;;;;;;6325999;28;20044;-42
2023/05/30 07:49:13;;;;;;;1.85;0.70;;;23.10;47.60;;;;;;6324023;28;20835;-44
2023/05/30 07:52:15;;;;;;;0.90;0.68;;;23.10;47.30;;;;;;6310868;28;20578;-42
2023/05/30 07:55:19;;;;;;;0.65;0.60;;;22.60;47.10;;;;;;6308221;28;20036;-42
2023/05/30 07:58:22;;;;;;;1.05;0.68;;;23.10;47.20;;;;;;6306636;28;20577;-55
2023/05/30 08:01:23;;;;;;;0.57;0.52;;;22.90;47.20;;;;;;6320178;28;20518;-50
2023/05/30 08:04:27;;;;;;;1.00;0.82;;;23.00;47.20;;;;;;6307961;28;20716;-54
2023/05/30 08:07:30;;;;;;;0.52;0.40;;;22.80;47.30;;;;;;6284612;28;20275;-49
2023/05/30 08:10:32;;;;;;;0.73;0.50;;;23.60;47.30;;;;;;6308068;28;20434;-51
2023/05/30 08:13:36;;;;;;;0.88;0.65;;;23.00;47.20;;;;;;6319469;28;20044;-52
2023/05/30 08:16:39;;;;;;;1.63;0.40;;;23.20;47.00;;;;;;6326069;28;20042;-49
2023/05/30 08:19:44;;;;;;;1.08;0.55;;;23.30;47.10;;;;;;6324584;28;20529;-46
2023/05/30 08:22:47;;;;;;;1.77;0.60;;;23.00;46.70;;;;;;6324662;28;20404;-51
2023/05/30 08:25:48;;;;;;;4.10;1.55;;;23.20;46.80;;;;;;6319955;28;20443;-48
2023/05/30 08:28:50;;;;;;;2.90;0.98;;;23.20;46.80;;;;;;6323650;28;20354;-52
2023/05/30 08:31:52;;;;;;;4.68;2.00;;;23.20;46.80;;;;;;6318349;28;20333;-52
2023/05/30 08:34:53;;;;;;;4.70;1.70;;;23.00;46.60;;;;;;6322335;28;20039;-47
2023/05/30 08:37:58;;;;;;;5.57;1.55;;;23.20;47.00;;;;;;6317925;28;20039;-48
2023/05/30 08:41:01;;;;;;;3.35;1.48;;;23.10;46.70;;;;;;6316914;28;20347;-46
2023/05/30 08:44:03;;;;;;;5.40;1.25;;;22.90;46.90;;;;;;6310212;28;20217;-50
2023/05/30 08:47:07;;;;;;;4.25;1.80;;;23.00;47.00;;;;;;6323844;28;20040;-51
2023/05/30 08:50:10;;;;;;;7.47;2.15;;;23.20;47.00;;;;;;6321472;28;20031;-48
2023/05/30 08:53:13;;;;;;;7.57;2.00;;;22.70;46.70;;;;;;6295832;28;20044;-46
2023/05/30 08:56:21;;;;;;;3.92;1.52;;;23.10;46.80;;;;;;6310902;28;20032;-49
2023/05/30 08:59:25;;;;;;;3.13;1.10;;;23.40;47.10;;;;;;6301881;28;20782;-51
2023/05/30 09:02:31;;;;;;;2.10;1.15;;;23.10;47.10;;;;;;6270967;28;20048;-52
2023/05/30 09:05:34;;;;;;;2.08;1.02;;;23.60;47.90;;;;;;6289323;28;20023;-52
2023/05/30 09:08:36;;;;;;;2.22;0.90;;;23.40;47.20;;;;;;6303661;28;20039;-51
2023/05/30 09:11:42;;;;;;;1.70;0.85;;;23.20;46.60;;;;;;6321747;28;20050;-52
2023/05/30 09:14:45;;;;;;;2.00;0.90;;;23.00;46.70;;;;;;6319027;28;20876;-54
2023/05/30 09:17:47;;;;;;;1.77;0.60;;;23.30;46.40;;;;;;6320340;28;20039;-53
2023/05/30 09:20:50;;;;;;;0.85;0.70;;;23.00;46.40;;;;;;6316505;28;20062;-51
2023/05/30 09:23:52;;;;;;;0.80;0.60;;;23.50;46.40;;;;;;6323917;28;20682;-51
2023/05/30 09:26:58;;;;;;;0.88;0.60;;;23.60;46.60;;;;;;6323056;28;20128;-52
2023/05/30 09:30:07;;;;;;;0.60;0.45;;;23.40;46.40;;;;;;6292025;28;20035;-53
2023/05/30 09:33:08;;;;;;;0.38;0.30;;;23.40;46.80;;;;;;6321566;28;20070;-56
2023/05/30 09:36:16;;;;;;;1.55;0.70;;;23.60;46.80;;;;;;6316054;28;20028;-56
2023/05/30 09:39:18;;;;;;;1.27;0.70;;;23.50;46.50;;;;;;6309219;28;20067;-56
2023/05/30 09:42:19;;;;;;;0.88;0.32;;;23.70;46.70;;;;;;6323396;28;20066;-56
2023/05/30 09:45:24;;;;;;;1.13;0.80;;;23.70;46.70;;;;;;6323497;28;20032;-56
2023/05/30 09:48:26;;;;;;;1.02;0.50;;;23.60;46.70;;;;;;6303437;28;20027;-57
2023/05/30 09:51:29;;;;;;;0.90;0.70;;;23.40;46.60;;;;;;6317734;28;20469;-56
2023/05/30 09:54:31;;;;;;;0.98;0.57;;;23.70;46.80;;;;;;6322447;28;20063;-56
2023/05/30 09:57:35;;;;;;;0.80;0.50;;;23.50;46.70;;;;;;6315895;28;20426;-56
2023/05/30 10:00:52;;;;;;;1.05;0.50;;;23.40;46.60;;;;;;6318488;28;20047;-57
2023/05/30 10:03:56;;;;;;;0.65;0.60;;;23.80;46.80;;;;;;6296851;28;20205;-58
2023/05/30 10:06:58;;;;;;;3.70;0.65;;;24.00;46.70;;;;;;6318296;28;20198;-57
2023/05/30 10:10:01;;;;;;;1.13;0.70;;;23.80;46.80;;;;;;6317856;28;20136;-57
2023/05/30 10:13:03;;;;;;;1.38;0.60;;;23.80;46.60;;;;;;6308208;28;20602;-57
2023/05/30 10:16:10;;;;;;;1.05;0.73;;;22.70;46.10;;;;;;6313042;28;20044;-58
2023/05/30 10:19:18;;;;;;;1.23;0.80;;;24.20;47.10;;;;;;6311241;28;20275;-58
2023/05/30 10:22:25;;;;;;;1.50;0.40;;;24.00;46.70;;;;;;6315728;28;20043;-57
2023/05/30 10:25:30;;;;;;;1.17;0.60;;;23.90;46.60;;;;;;6306636;28;20032;-57
2023/05/30 10:28:33;;;;;;;0.80;0.60;;;24.00;46.90;;;;;;6291738;28;20266;-57
2023/05/30 10:31:39;;;;;;;0.90;0.68;;;24.00;46.60;;;;;;6308106;28;20035;-57
2023/05/30 10:34:45;;;;;;;1.00;0.50;;;23.60;46.50;;;;;;6308352;28;20775;-57
2023/05/30 10:37:46;;;;;;;0.88;0.50;;;24.00;46.60;;;;;;6292057;28;20088;-60
2023/05/30 10:40:57;;;;;;;0.65;0.52;;;23.80;46.60;;;;;;6307204;28;20044;-58
2023/05/30 10:44:14;;;;;;;0.80;0.52;;;24.20;46.70;;;;;;6312357;28;20040;-58
2023/05/30 10:47:25;;;;;;;0.80;0.50;;;24.20;47.40;;;;;;6318927;28;20036;-58
2023/05/30 10:50:32;;;;;;;0.70;0.55;;;24.00;46.60;;;;;;6305387;28;20091;-57
2023/05/30 10:53:42;;;;;;;0.90;0.55;;;24.40;46.80;;;;;;6307395;28;20044;-57
2023/05/30 10:56:45;;;;;;;1.13;0.60;;;24.10;46.70;;;;;;6306266;28;20035;-57
2023/05/30 10:59:46;;;;;;;1.00;0.52;;;24.30;46.70;;;;;;6326715;28;20046;-57
2023/05/30 11:02:51;;;;;;;0.60;0.50;;;23.80;46.50;;;;;;6326818;28;20229;-58
2023/05/30 11:05:55;;;;;;;1.10;0.70;;;24.20;46.70;;;;;;6322564;28;20577;-57
2023/05/30 11:09:04;;;;;;;1.15;0.70;;;24.10;46.70;;;;;;6288943;28;20043;-57
2023/05/30 11:12:08;;;;;;;0.52;0.40;;;24.40;46.80;;;;;;6308862;28;20036;-57
2023/05/30 11:15:15;;;;;;;1.23;0.70;;;24.20;46.70;;;;;;6320826;28;20031;-57
2023/05/30 11:18:19;;;;;;;1.88;0.70;;;24.30;46.80;;;;;;6303594;28;20084;-57
2023/05/30 11:21:49;;;;;;;1.10;0.90;;;24.50;46.80;;;;;;6325420;28;20118;-58
2023/05/30 11:25:18;;;;;;;1.00;0.80;;;24.40;46.70;;;;;;6308541;28;20067;-57
2023/05/30 11:28:34;;;;;;;1.45;1.10;;;24.70;46.80;;;;;;6312547;28;20040;-57
2023/05/30 11:31:37;;;;;;;1.23;0.90;;;24.40;46.80;;;;;;6306430;28;20036;-59
2023/05/30 11:34:39;;;;;;;1.00;0.90;;;24.50;46.80;;;;;;6325054;28;20036;-58
2023/05/30 11:37:44;;;;;;;1.23;1.00;;;24.50;47.00;;;;;;6300748;28;20653;-58
2023/05/30 11:40:46;;;;;;;1.38;0.88;;;24.20;46.90;;;;;;6326916;28;20039;-58
2023/05/30 11:43:49;;;;;;;3.92;0.90;;;24.10;46.90;;;;;;6308731;28;20047;-58
2023/05/30 11:47:00;;;;;;;3.22;0.80;;;24.20;47.00;;;;;;6325056;28;20070;-57
2023/05/30 11:50:02;;;;;;;0.95;0.77;;;24.50;47.30;;;;;;6307269;28;20681;-57
2023/05/30 11:53:13;;;;;;;1.25;0.70;;;24.50;47.40;;;;;;6311582;28;20040;-58
2023/05/30 11:56:15;;;;;;;0.90;0.80;;;24.50;47.50;;;;;;6321412;28;20676;-58
2023/05/30 11:59:21;;;;;;;1.58;0.93;;;24.30;47.50;;;;;;6321536;28;20039;-59
2023/05/30 12:02:27;;;;;;;2.10;0.77;;;24.50;47.80;;;;;;6303185;28;20070;-58
2023/05/30 12:05:35;;;;;;;2.70;0.80;;;24.40;48.00;;;;;;6312195;28;20194;-56
2023/05/30 12:08:39;;;;;;;0.63;0.55;;;25.60;49.00;;;;;;6315366;28;20043;-56
2023/05/30 12:11:51;;;;;;;1.33;0.82;;;24.50;48.40;;;;;;6288261;28;20039;-57
2023/05/30 12:15:06;;;;;;;1.15;0.60;;;24.40;48.40;;;;;;6318336;28;20175;-57
2023/05/30 12:18:09;;;;;;;1.48;0.80;;;24.10;48.40;;;;;;6321887;28;20028;-60
2023/05/30 12:21:12;;;;;;;1.00;0.45;;;24.50;48.60;;;;;;6323744;28;20119;-58
2023/05/30 12:24:14;;;;;;;1.00;0.70;;;23.20;47.90;;;;;;6324635;28;20738;-57
2023/05/30 12:27:19;;;;;;;1.95;0.63;;;24.30;48.70;;;;;;6323897;28;20112;-58
2023/05/30 12:30:22;;;;;;;0.85;0.70;;;24.50;48.80;;;;;;6292490;28;20036;-58
2023/05/30 12:33:24;;;;;;;1.90;0.68;;;24.00;48.50;;;;;;6322816;28;20047;-57
2023/05/30 12:36:29;;;;;;;1.05;0.65;;;24.40;48.60;;;;;;6327529;28;20694;-57
2023/05/30 12:39:32;;;;;;;0.75;0.60;;;24.30;48.50;;;;;;6326053;28;20032;-57
2023/05/30 12:42:36;;;;;;;0.80;0.50;;;24.10;48.50;;;;;;6314351;28;20047;-56
2023/05/30 12:45:38;;;;;;;0.88;0.80;;;24.40;48.70;;;;;;6317044;28;20039;-57
2023/05/30 12:48:41;;;;;;;1.00;0.60;;;24.40;48.70;;;;;;6329280;28;20035;-57
2023/05/30 12:51:42;;;;;;;0.80;0.50;;;24.50;48.70;;;;;;6334000;28;20044;-57
2023/05/30 12:54:45;;;;;;;0.88;0.60;;;24.50;48.70;;;;;;6331486;28;20036;-57
2023/05/30 12:57:46;;;;;;;1.33;0.60;;;24.50;48.80;;;;;;6330594;28;20032;-57
2023/05/30 13:00:48;;;;;;;0.80;0.70;;;24.20;48.70;;;;;;6325952;28;20051;-57
2023/05/30 13:03:52;;;;;;;0.70;0.50;;;23.90;48.60;;;;;;6327973;28;20092;-58
2023/05/30 13:06:55;;;;;;;1.15;0.70;;;24.50;48.70;;;;;;6303076;28;20036;-58
2023/05/30 13:09:59;;;;;;;0.93;0.80;;;24.30;48.60;;;;;;6321587;28;20051;-57
2023/05/30 13:13:02;;;;;;;1.33;0.63;;;24.30;48.50;;;;;;6324579;28;20023;-57
2023/05/30 13:16:05;;;;;;;0.60;0.50;;;24.20;48.50;;;;;;6329334;28;20036;-57
2023/05/30 13:19:08;;;;;;;0.60;0.40;;;24.10;48.30;;;;;;6325886;28;20111;-57
2023/05/30 13:22:12;;;;;;;0.93;0.75;;;24.50;48.70;;;;;;6323914;28;20697;-58
2023/05/30 13:25:13;;;;;;;0.82;0.55;;;24.30;48.40;;;;;;6320619;28;20032;-57
2023/05/30 13:28:15;;;;;;;0.80;0.70;;;23.80;48.40;;;;;;6325558;28;20093;-58
2023/05/30 13:31:17;;;;;;;0.70;0.60;;;24.20;48.50;;;;;;6325604;28;20032;-58
2023/05/30 13:34:19;;;;;;;0.60;0.60;;;24.10;48.50;;;;;;6304945;28;20423;-58
2023/05/30 13:37:21;;;;;;;0.70;0.70;;;24.40;48.70;;;;;;6306387;28;20044;-57
2023/05/30 13:40:23;;;;;;;1.25;0.60;;;24.50;48.70;;;;;;6315150;28;20035;-58
2023/05/30 13:43:26;;;;;;;1.40;0.90;;;24.60;48.90;;;;;;6311542;28;20044;-58
2023/05/30 13:46:29;;;;;;;0.70;0.70;;;24.40;48.90;;;;;;6228650;28;20800;-57
2023/05/30 13:49:32;;;;;;;0.77;0.60;;;24.60;49.20;;;;;;6235293;28;20145;-57
2023/05/30 13:52:34;;;;;;;1.02;0.75;;;23.90;49.20;;;;;;6282549;28;20038;-56
2023/05/30 13:55:35;;;;;;;0.70;0.60;;;24.60;49.20;;;;;;6300026;28;20031;-57
2023/05/30 13:58:37;;;;;;;0.68;0.40;;;24.40;48.80;;;;;;6301864;28;20419;-57
2023/05/30 14:01:40;;;;;;;0.90;0.60;;;24.20;48.80;;;;;;6297334;28;20509;-57
2023/05/30 14:04:42;;;;;;;0.98;0.60;;;24.40;49.10;;;;;;6265576;28;20024;-59
2023/05/30 14:07:44;;;;;;;1.20;0.98;;;24.50;49.00;;;;;;6280999;28;20476;-60
2023/05/30 14:10:45;;;;;;;0.98;0.70;;;24.20;49.10;;;;;;6288979;28;20376;-59
2023/05/30 14:13:53;;;;;;;0.68;0.50;;;24.40;49.00;;;;;;6307757;28;20035;-60
2023/05/30 14:16:57;;;;;;;1.30;0.70;;;24.60;48.90;;;;;;6311841;28;20437;-58
2023/05/30 14:19:59;;;;;;;0.88;0.82;;;24.30;48.70;;;;;;6302845;28;20035;-59
2023/05/30 14:23:01;;;;;;;1.20;0.80;;;24.50;49.50;;;;;;6286341;28;20043;-60
2023/05/30 14:26:03;;;;;;;1.13;0.90;;;24.40;48.70;;;;;;6284353;28;20050;-60
2023/05/30 14:29:04;;;;;;;0.70;0.63;;;24.00;48.50;;;;;;6293656;28;20032;-60
2023/05/30 14:32:07;;;;;;;0.90;0.68;;;24.40;48.60;;;;;;6305459;28;20520;-60
2023/05/30 14:35:09;;;;;;;0.85;0.60;;;24.20;48.50;;;;;;6302268;28;20040;-46
2023/05/30 14:38:10;;;;;;;0.63;0.52;;;24.50;48.90;;;;;;6296842;28;20110;-46
2023/05/30 14:41:12;;;;;;;0.90;0.70;;;24.60;48.60;;;;;;6302484;28;20594;-46
2023/05/30 14:44:14;;;;;;;0.80;0.73;;;24.10;48.40;;;;;;6270645;28;20271;-45
2023/05/30 14:47:22;;;;;;;0.70;0.57;;;24.20;48.40;;;;;;6280511;28;20031;-42
2023/05/30 14:50:26;;;;;;;0.70;0.50;;;24.20;48.50;;;;;;6264333;28;20035;-48
2023/05/30 14:53:29;;;;;;;2.28;0.70;;;24.40;48.30;;;;;;6268177;28;20237;-49
2023/05/30 14:56:32;;;;;;;0.93;0.50;;;24.30;48.10;;;;;;6285886;28;20270;-46
2023/05/30 14:59:35;;;;;;;0.70;0.70;;;23.70;47.80;;;;;;6280732;28;20549;-48
2023/05/30 15:02:39;;;;;;;1.10;0.65;;;24.10;48.00;;;;;;6266709;28;20710;-47
2023/05/30 15:05:44;;;;;;;0.60;0.60;;;24.20;48.00;;;;;;6295153;28;20724;-48
2023/05/30 15:08:46;;;;;;;1.10;0.60;;;24.30;48.00;;;;;;6298084;28;20056;-51
2023/05/30 15:11:47;;;;;;;0.95;0.70;;;24.20;47.80;;;;;;6305520;28;20097;-50
2023/05/30 15:14:51;;;;;;;1.42;0.77;;;24.20;48.00;;;;;;6298088;28;20070;-49
2023/05/30 15:17:53;;;;;;;1.25;0.80;;;24.20;47.70;;;;;;6300103;28;20583;-45
2023/05/30 15:20:56;;;;;;;1.48;0.70;;;24.40;47.90;;;;;;6297616;28;20046;-47
2023/05/30 15:23:57;;;;;;;1.75;0.50;;;24.30;47.80;;;;;;6301405;28;20032;-47
2023/05/30 15:26:59;;;;;;;1.38;0.70;;;24.40;47.70;;;;;;6300570;28;20043;-50
2023/05/30 15:30:01;;;;;;;1.10;0.70;;;24.40;47.80;;;;;;6302125;28;20092;-46
2023/05/30 15:33:03;;;;;;;1.33;0.75;;;25.40;48.30;;;;;;6303213;28;20035;-43
2023/05/30 15:36:05;;;;;;;0.90;0.82;;;24.30;47.70;;;;;;6305597;28;20039;-43
2023/05/30 15:39:08;;;;;;;0.70;0.60;;;23.80;47.30;;;;;;6293556;28;20067;-43
2023/05/30 15:42:09;;;;;;;0.60;0.60;;;24.40;48.30;;;;;;6300853;28;20162;-46
2023/05/30 15:45:11;;;;;;;0.82;0.60;;;24.30;47.50;;;;;;6290004;28;20036;-48
2023/05/30 15:48:13;;;;;;;1.15;0.60;;;24.30;47.40;;;;;;6306052;28;20693;-50
2023/05/30 15:51:18;;;;;;;1.23;0.68;;;24.10;47.10;;;;;;6309121;28;20787;-49
2023/05/30 15:54:20;;;;;;;1.30;0.60;;;24.40;47.30;;;;;;6303166;28;20039;-43
2023/05/30 15:57:22;;;;;;;1.80;0.73;;;24.40;47.10;;;;;;6290822;28;20027;-47
2023/05/30 16:00:25;;;;;;;0.90;0.50;;;24.00;46.90;;;;;;6310826;28;20043;-49